In Rescue
 
Open Full Screen Window  High Contrast Mode
Wind Gusting 00 knots
05
January 22, 2020 7:03 PM EST
Weather Information
Wind Direction
  140 °
Wind Speed
  05 kt (6 mph)
Wind Gust
  00 kt (0 mph)
Altimeter
30.26 in
Visibility
7 SM
Temperature
00° C
32° F
Dewpoint
-06° C
21° F
Humidity
64%
Sky Condition
Clear
VFR

METAR KAXV 230003Z AUTO 14005KT 7SM CLR 00/M06 A3026 RMK AO2

FAA Disclaimer: The data displayed is for advisory purposes only and is not to be used for flight planning or operations.